Terminal Aerodrome Forecast
Issued by NWS

Home | Current Version | Previous Version | Text Only | Print | Product List | Glossary On
Versions: 1 2 3 4 5 6 7 8 9 10 11 12 13 14 15
000
FTUS44 KTSA 072207 AAA
TAFMLC
TAF AMD
KMLC 072207Z 0722/0818 31007KT P6SM VCTS SCT025 BKN050CB
      TEMPO 0722/0802 1SM +TSRA BKN015 OVC025CB
     FM080400 09007KT 5SM -RA VCTS OVC035CB
     FM081100 21005KT 4SM -RA BR OVC010=

USA.gov is the U.S. government's official web portal to all federal, state and local government web resources and services.